createdAt,value
2023-05-25T00:01:13.910Z,20.70
2023-05-25T00:03:41.208Z,21.98
2023-05-25T00:06:08.437Z,17.70
2023-05-25T00:08:35.856Z,22.42
2023-05-25T00:11:03.098Z,19.05
2023-05-25T00:13:30.296Z,17.50
2023-05-25T00:15:57.885Z,18.42
2023-05-25T00:18:27.742Z,19.35
2023-05-25T00:20:54.750Z,17.83
2023-05-25T00:23:21.886Z,35.58
2023-05-25T00:25:48.845Z,17.48
2023-05-25T00:28:15.825Z,23.15
2023-05-25T00:30:43.219Z,22.48
2023-05-25T00:33:10.768Z,15.73
2023-05-25T00:35:38.077Z,16.08
2023-05-25T00:38:05.098Z,15.30
2023-05-25T00:40:54.242Z,18.60
2023-05-25T00:43:55.392Z,18.05
2023-05-25T00:46:53.388Z,19.65
2023-05-25T00:49:23.279Z,20.08
2023-05-25T00:51:52.217Z,20.33
2023-05-25T00:54:20.275Z,27.02
2023-05-25T00:56:52.922Z,25.23
2023-05-25T00:59:37.198Z,20.33
2023-05-25T01:02:16.391Z,18.55
2023-05-25T01:04:45.815Z,23.23
2023-05-25T01:07:19.019Z,21.05
2023-05-25T01:09:47.935Z,21.27
2023-05-25T01:12:17.073Z,20.63
2023-05-25T01:14:45.672Z,24.70
2023-05-25T01:17:12.757Z,26.25
2023-05-25T01:19:41.213Z,20.05
2023-05-25T01:22:27.463Z,30.25
2023-05-25T01:25:02.503Z,22.27
2023-05-25T01:27:38.647Z,20.65
2023-05-25T01:30:12.510Z,20.75
2023-05-25T01:32:42.781Z,20.45
2023-05-25T01:35:11.364Z,23.45
2023-05-25T01:37:45.159Z,23.13
2023-05-25T01:40:32.620Z,24.50
2023-05-25T01:43:33.650Z,23.15
2023-05-25T01:46:38.788Z,38.90
2023-05-25T01:49:17.441Z,23.10
2023-05-25T01:51:56.784Z,25.35
2023-05-25T01:54:32.378Z,28.13
2023-05-25T01:57:02.018Z,27.77
2023-05-25T01:59:31.391Z,28.13
2023-05-25T02:02:00.187Z,25.83
2023-05-25T02:04:28.128Z,25.63
2023-05-25T02:06:55.776Z,23.90
2023-05-25T02:09:22.880Z,25.73
2023-05-25T02:11:51.432Z,26.17
2023-05-25T02:14:18.913Z,24.75
2023-05-25T02:16:48.841Z,28.98
2023-05-25T02:19:17.366Z,29.38
2023-05-25T02:21:44.999Z,23.35
2023-05-25T02:24:12.321Z,25.95
2023-05-25T02:26:39.782Z,26.90
2023-05-25T02:29:08.471Z,25.58
2023-05-25T02:31:35.625Z,23.73
2023-05-25T02:34:03.476Z,20.42
2023-05-25T02:36:31.575Z,33.97
2023-05-25T02:38:58.894Z,20.50
2023-05-25T02:41:45.668Z,19.35
2023-05-25T02:44:26.368Z,24.35
2023-05-25T02:46:53.469Z,28.73
2023-05-25T02:49:20.645Z,26.17
2023-05-25T02:51:48.467Z,28.20
2023-05-25T02:54:19.557Z,25.60
2023-05-25T02:56:46.754Z,32.55
2023-05-25T02:59:16.134Z,23.95
2023-05-25T03:01:43.218Z,20.73
2023-05-25T03:04:10.267Z,24.10
2023-05-25T03:06:38.118Z,20.27
2023-05-25T03:09:12.460Z,19.60
2023-05-25T03:11:40.444Z,23.50
2023-05-25T03:14:10.642Z,20.15
2023-05-25T03:16:39.303Z,15.98
2023-05-25T03:19:07.514Z,21.70
2023-05-25T03:21:38.473Z,26.25
2023-05-25T03:24:06.711Z,19.88
2023-05-25T03:26:34.060Z,22.77
2023-05-25T03:29:02.997Z,26.65
2023-05-25T03:31:30.035Z,23.45
2023-05-25T03:33:57.544Z,16.38
2023-05-25T03:36:27.596Z,17.80
2023-05-25T03:38:55.073Z,23.17
2023-05-25T03:41:42.715Z,20.95
2023-05-25T03:44:43.637Z,23.42
2023-05-25T03:47:24.310Z,23.65
2023-05-25T03:49:51.217Z,18.90
2023-05-25T03:52:18.558Z,29.42
2023-05-25T03:54:45.678Z,31.45
2023-05-25T03:57:12.700Z,17.42
2023-05-25T03:59:39.617Z,25.13
2023-05-25T04:02:06.726Z,17.98
2023-05-25T04:04:33.746Z,25.40
2023-05-25T04:07:00.867Z,26.55
2023-05-25T04:09:27.780Z,17.73
2023-05-25T04:11:54.661Z,15.90
2023-05-25T04:14:21.711Z,20.02
2023-05-25T04:16:49.495Z,15.75
2023-05-25T04:19:17.306Z,24.70
2023-05-25T04:21:44.223Z,20.65
2023-05-25T04:24:12.059Z,20.83
2023-05-25T04:26:40.486Z,26.48
2023-05-25T04:29:10.176Z,14.00
2023-05-25T04:32:09.746Z,33.10
2023-05-25T04:35:06.436Z,18.98
2023-05-25T04:37:41.786Z,15.30
2023-05-25T04:40:29.649Z,25.45
2023-05-25T04:43:20.473Z,15.75
2023-05-25T04:45:47.951Z,18.17
2023-05-25T04:48:15.233Z,14.27
2023-05-25T04:50:42.898Z,13.20
2023-05-25T04:53:10.055Z,12.98
2023-05-25T04:55:37.607Z,12.48
2023-05-25T04:58:05.817Z,15.73
2023-05-25T05:00:34.452Z,13.65
2023-05-25T05:03:02.639Z,17.08
2023-05-25T05:05:30.892Z,26.55
2023-05-25T05:08:01.369Z,29.23
2023-05-25T05:10:28.510Z,18.17
2023-05-25T05:12:57.875Z,15.73
2023-05-25T05:15:44.967Z,13.98
2023-05-25T05:18:45.722Z,28.60
2023-05-25T05:21:26.356Z,13.07
2023-05-25T05:24:13.720Z,14.05
2023-05-25T05:26:58.129Z,11.38
2023-05-25T05:29:37.725Z,27.20
2023-05-25T05:32:05.209Z,15.32
2023-05-25T05:34:33.051Z,19.02
2023-05-25T05:37:04.067Z,17.48
2023-05-25T05:39:50.710Z,14.38
2023-05-25T05:42:51.706Z,18.20
2023-05-25T05:45:32.274Z,24.02
2023-05-25T05:47:59.347Z,17.60
2023-05-25T05:50:27.343Z,11.60
2023-05-25T05:52:54.423Z,17.80
2023-05-25T05:55:22.051Z,13.77
2023-05-25T05:57:51.751Z,23.60
2023-05-25T06:00:19.597Z,16.15
2023-05-25T06:02:46.862Z,12.27
2023-05-25T06:05:20.198Z,10.50
2023-05-25T06:07:48.537Z,14.23
2023-05-25T06:10:16.833Z,29.55
2023-05-25T06:12:44.374Z,14.25
2023-05-25T06:15:11.800Z,10.43
2023-05-25T06:17:40.316Z,19.25
2023-05-25T06:20:10.887Z,18.92
2023-05-25T06:22:37.900Z,11.18
2023-05-25T06:25:05.130Z,13.60
2023-05-25T06:27:33.427Z,10.82
2023-05-25T06:30:01.397Z,20.70
2023-05-25T06:32:28.664Z,15.18
2023-05-25T06:34:55.996Z,11.45
2023-05-25T06:37:23.329Z,24.80
2023-05-25T06:40:10.780Z,10.00
2023-05-25T06:43:12.763Z,17.27
2023-05-25T06:46:18.621Z,11.68
2023-05-25T06:48:46.298Z,13.63
2023-05-25T06:51:14.569Z,13.10
2023-05-25T06:53:41.634Z,13.88
2023-05-25T06:56:08.672Z,11.82
2023-05-25T06:58:35.715Z,17.00
2023-05-25T07:01:02.982Z,18.95
2023-05-25T07:03:30.422Z,10.20
2023-05-25T07:05:57.463Z,11.85
2023-05-25T07:08:24.416Z,17.90
2023-05-25T07:10:51.649Z,16.63
2023-05-25T07:13:38.828Z,14.20
2023-05-25T07:16:34.366Z,10.30
2023-05-25T07:19:01.398Z,17.25
2023-05-25T07:21:35.118Z,9.95
2023-05-25T07:24:21.803Z,20.65
2023-05-25T07:27:03.571Z,9.60
2023-05-25T07:29:30.602Z,12.40
2023-05-25T07:31:59.163Z,11.48
2023-05-25T07:34:28.078Z,15.48
2023-05-25T07:36:55.067Z,17.17
2023-05-25T07:39:22.044Z,17.67
2023-05-25T07:42:08.832Z,24.63
2023-05-25T07:45:09.899Z,16.02
2023-05-25T07:47:50.570Z,8.63
2023-05-25T07:50:17.682Z,17.42
2023-05-25T07:52:44.957Z,19.45
2023-05-25T07:55:13.856Z,13.23
2023-05-25T07:57:40.888Z,22.05
2023-05-25T08:00:27.817Z,18.48
2023-05-25T08:03:08.463Z,10.07
2023-05-25T08:05:35.490Z,9.75
2023-05-25T08:08:02.732Z,15.93
2023-05-25T08:10:32.510Z,17.02
2023-05-25T08:12:59.924Z,11.90
2023-05-25T08:15:27.375Z,13.80
2023-05-25T08:17:56.127Z,16.30
2023-05-25T08:20:25.270Z,10.80
2023-05-25T08:22:53.753Z,7.18
2023-05-25T08:25:21.396Z,11.55
2023-05-25T08:27:49.489Z,13.55
2023-05-25T08:30:16.817Z,13.50
2023-05-25T08:32:43.998Z,13.07
2023-05-25T08:35:14.305Z,17.08
2023-05-25T08:37:42.707Z,9.82
2023-05-25T08:40:30.880Z,12.30
2023-05-25T08:43:20.703Z,10.52
2023-05-25T08:45:47.884Z,14.02
2023-05-25T08:51:16.949Z,11.48
2023-05-25T08:54:22.815Z,12.20
2023-05-25T08:57:06.560Z,18.52
2023-05-25T09:00:03.835Z,14.70
2023-05-25T09:03:13.895Z,11.48
2023-05-25T09:06:09.869Z,12.60
2023-05-25T09:09:08.843Z,20.65
2023-05-25T09:11:40.545Z,32.55
2023-05-25T09:14:09.181Z,9.70
2023-05-25T09:16:38.600Z,10.77
2023-05-25T09:19:05.853Z,17.40
2023-05-25T09:21:32.788Z,14.50
2023-05-25T09:24:01.627Z,16.92
2023-05-25T09:26:28.839Z,13.10
2023-05-25T09:28:56.146Z,13.05
2023-05-25T09:31:42.887Z,20.63
2023-05-25T09:34:46.880Z,13.88
2023-05-25T09:37:27.523Z,18.40
2023-05-25T09:39:54.630Z,12.52
2023-05-25T09:42:41.878Z,15.55
2023-05-25T09:45:23.368Z,10.02
2023-05-25T09:47:55.182Z,13.05
2023-05-25T09:50:22.882Z,30.95
2023-05-25T09:52:50.067Z,10.15
2023-05-25T09:55:17.444Z,7.95
2023-05-25T09:57:44.833Z,10.82
2023-05-25T10:00:31.903Z,19.00
2023-05-25T10:03:32.951Z,9.07
2023-05-25T10:06:15.026Z,8.85
2023-05-25T10:08:45.393Z,10.27
2023-05-25T10:11:14.685Z,10.73
2023-05-25T10:13:44.967Z,8.63
2023-05-25T10:16:18.358Z,9.57
2023-05-25T10:18:54.967Z,9.32
2023-05-25T10:21:22.867Z,9.98
2023-05-25T10:23:54.442Z,23.17
2023-05-25T10:26:26.469Z,17.33
2023-05-25T10:29:00.470Z,10.27
2023-05-25T10:31:29.930Z,8.93
2023-05-25T10:33:58.354Z,10.73
2023-05-25T10:36:47.920Z,11.18
2023-05-25T10:39:29.450Z,12.13
2023-05-25T10:42:19.901Z,21.00
2023-05-25T10:45:00.937Z,9.23
2023-05-25T10:47:28.432Z,12.68
2023-05-25T10:49:58.024Z,15.50
2023-05-25T10:52:29.652Z,22.83
2023-05-25T10:54:58.110Z,13.57
2023-05-25T10:57:26.183Z,18.52
2023-05-25T10:59:59.723Z,12.90
2023-05-25T11:03:04.092Z,16.50
2023-05-25T11:06:04.916Z,12.20
2023-05-25T11:09:04.253Z,11.73
2023-05-25T11:11:43.626Z,11.80
2023-05-25T11:14:32.174Z,12.73
2023-05-25T11:17:13.122Z,12.57
2023-05-25T11:19:44.253Z,19.98
2023-05-25T11:22:18.071Z,10.60
2023-05-25T11:24:45.388Z,15.07
2023-05-25T11:27:12.724Z,12.00
2023-05-25T11:30:04.933Z,22.60
2023-05-25T11:33:06.005Z,13.45
2023-05-25T11:35:55.346Z,13.52
2023-05-25T11:38:25.028Z,16.95
2023-05-25T11:41:11.943Z,16.27
2023-05-25T11:43:54.110Z,12.00
2023-05-25T11:46:41.024Z,11.80
2023-05-25T11:49:42.116Z,12.18
2023-05-25T11:52:43.967Z,11.05
2023-05-25T11:55:24.722Z,7.13
2023-05-25T11:58:11.977Z,6.45
2023-05-25T12:01:37.940Z,11.75
2023-05-25T12:04:41.060Z,5.65
2023-05-25T12:07:42.952Z,25.35
2023-05-25T12:10:23.702Z,9.07
2023-05-25T12:12:51.838Z,8.55
2023-05-25T12:15:23.075Z,9.57
2023-05-25T12:17:51.322Z,7.10
2023-05-25T12:20:18.945Z,17.65
2023-05-25T12:22:47.327Z,6.25
2023-05-25T12:25:18.553Z,8.35
2023-05-25T12:27:45.704Z,7.28
2023-05-25T12:30:32.997Z,5.18
2023-05-25T12:33:15.048Z,10.80
2023-05-25T12:35:49.862Z,6.45
2023-05-25T12:38:18.887Z,7.80
2023-05-25T12:41:18.972Z,5.40
2023-05-25T12:43:59.688Z,4.28
2023-05-25T12:46:47.022Z,7.45
2023-05-25T12:49:47.978Z,13.20
2023-05-25T12:52:50.974Z,8.75
2023-05-25T12:55:33.569Z,10.95
2023-05-25T12:58:21.011Z,11.05
2023-05-25T13:01:01.620Z,8.90
2023-05-25T13:03:28.741Z,20.95
2023-05-25T13:06:04.821Z,17.98
2023-05-25T13:08:32.109Z,15.77
2023-05-25T13:11:00.001Z,6.75
2023-05-25T13:13:27.057Z,5.65
2023-05-25T13:15:54.001Z,12.82
2023-05-25T13:18:21.176Z,5.22
2023-05-25T13:20:50.635Z,11.68
2023-05-25T13:23:19.626Z,5.82
2023-05-25T13:25:47.077Z,5.57
2023-05-25T13:28:14.339Z,8.23
2023-05-25T13:31:02.605Z,7.03
2023-05-25T13:34:03.041Z,16.40
2023-05-25T13:36:43.640Z,8.77
2023-05-25T13:39:13.660Z,6.75
2023-05-25T13:42:01.139Z,10.23
2023-05-25T13:44:41.628Z,6.63
2023-05-25T13:47:09.571Z,7.15
2023-05-25T13:49:57.080Z,4.82
2023-05-25T13:52:58.062Z,8.52
2023-05-25T13:55:39.464Z,6.85
2023-05-25T13:58:27.038Z,9.45
2023-05-25T14:01:28.127Z,9.57
2023-05-25T14:04:29.055Z,6.00
2023-05-25T14:07:18.420Z,17.10
2023-05-25T14:09:45.716Z,6.03
2023-05-25T14:12:14.253Z,6.97
2023-05-25T14:14:41.510Z,6.43
2023-05-25T14:17:08.474Z,6.25
2023-05-25T14:19:35.602Z,7.43
2023-05-25T14:24:32.532Z,6.03
2023-05-25T14:26:59.476Z,8.40
2023-05-25T14:29:47.129Z,7.93
2023-05-25T14:32:27.640Z,10.60
2023-05-25T14:34:54.670Z,9.13
2023-05-25T14:37:21.824Z,9.40
2023-05-25T14:39:48.913Z,11.60
2023-05-25T14:42:29.300Z,6.03
2023-05-25T14:45:30.088Z,15.88
2023-05-25T14:48:16.694Z,9.50
2023-05-25T14:50:44.653Z,6.28
2023-05-25T14:53:12.041Z,7.20
2023-05-25T14:55:39.102Z,5.30
2023-05-25T14:58:08.456Z,7.93
2023-05-25T15:00:35.519Z,6.35
2023-05-25T15:03:02.524Z,11.50
2023-05-25T15:05:50.120Z,7.47
2023-05-25T15:08:30.834Z,10.32
2023-05-25T15:10:57.854Z,7.57
2023-05-25T15:13:24.821Z,6.20
2023-05-25T15:15:57.372Z,9.20
2023-05-25T15:18:24.442Z,12.90
2023-05-25T15:20:51.690Z,8.85
2023-05-25T15:23:18.681Z,19.48
2023-05-25T15:25:45.647Z,14.25
2023-05-25T15:28:33.144Z,7.22
2023-05-25T15:31:13.657Z,6.85
2023-05-25T15:33:51.979Z,10.52
2023-05-25T15:36:23.564Z,7.97
2023-05-25T15:38:50.521Z,12.20
2023-05-25T15:41:37.275Z,14.65
2023-05-25T15:44:17.682Z,5.43
2023-05-25T15:46:44.648Z,5.78
2023-05-25T15:49:11.798Z,7.13
2023-05-25T15:51:41.763Z,13.02
2023-05-25T15:54:29.227Z,8.80
2023-05-25T15:57:30.150Z,7.97
2023-05-25T16:00:31.166Z,10.13
2023-05-25T16:03:11.723Z,7.90
2023-05-25T16:05:38.757Z,7.05
2023-05-25T16:08:05.786Z,8.43
2023-05-25T16:10:32.741Z,18.95
2023-05-25T16:12:59.739Z,11.25
2023-05-25T16:15:26.900Z,5.20
2023-05-25T16:18:16.208Z,7.15
2023-05-25T16:21:17.146Z,6.07
2023-05-25T16:23:58.044Z,10.02
2023-05-25T16:26:25.100Z,10.30
2023-05-25T16:29:12.130Z,7.25
2023-05-25T16:32:13.195Z,5.32
2023-05-25T16:34:53.771Z,13.13
2023-05-25T16:37:20.781Z,7.95
2023-05-25T16:39:47.850Z,5.63
2023-05-25T16:42:35.439Z,12.63
2023-05-25T16:45:15.753Z,5.43
2023-05-25T16:47:42.854Z,10.25
2023-05-25T16:50:10.067Z,11.02
2023-05-25T16:52:57.277Z,13.38
2023-05-25T16:55:38.029Z,9.57
2023-05-25T16:58:05.028Z,17.85
2023-05-25T17:00:32.207Z,8.15
2023-05-25T17:02:59.493Z,11.55
2023-05-25T17:05:26.651Z,9.80
2023-05-25T17:07:53.706Z,13.43
2023-05-25T17:10:41.162Z,12.35
2023-05-25T17:13:35.944Z,11.32
2023-05-25T17:16:16.966Z,6.78
2023-05-25T17:18:43.988Z,6.80
2023-05-25T17:21:31.199Z,7.82
2023-05-25T17:24:11.792Z,5.95
2023-05-25T17:26:59.193Z,7.55
2023-05-25T17:30:00.218Z,6.18
2023-05-25T17:33:00.073Z,6.65
2023-05-25T17:35:30.238Z,5.28
2023-05-25T17:37:57.376Z,12.75
2023-05-25T17:40:44.213Z,11.10
2023-05-25T17:43:24.670Z,9.00
2023-05-25T17:45:52.848Z,5.57
2023-05-25T17:48:19.912Z,10.93
2023-05-25T17:50:46.948Z,7.50
2023-05-25T17:53:34.247Z,7.57
2023-05-25T17:56:14.757Z,8.27
2023-05-25T17:58:47.266Z,11.15
2023-05-25T18:01:15.578Z,10.32
2023-05-25T18:03:42.965Z,8.00
2023-05-25T18:06:10.275Z,9.18
2023-05-25T18:08:37.310Z,7.70
2023-05-25T18:11:04.343Z,10.98
2023-05-25T18:13:31.412Z,9.02
2023-05-25T18:16:18.339Z,9.45
2023-05-25T18:19:22.247Z,11.23
2023-05-25T18:22:23.226Z,12.35
2023-05-25T18:25:24.240Z,9.02
2023-05-25T18:28:04.950Z,10.93
2023-05-25T18:30:31.927Z,9.95
2023-05-25T18:33:19.276Z,7.63
2023-05-25T18:35:59.946Z,11.52
2023-05-25T18:38:26.999Z,12.05
2023-05-25T18:41:14.254Z,10.80
2023-05-25T18:43:55.092Z,9.55
2023-05-25T18:46:22.546Z,13.38
2023-05-25T18:48:49.637Z,8.80
2023-05-25T18:51:36.266Z,11.43
2023-05-25T18:54:16.735Z,12.52
2023-05-25T18:56:43.708Z,9.05
2023-05-25T18:59:10.654Z,12.63
2023-05-25T19:01:38.696Z,10.80
2023-05-25T19:04:28.266Z,13.32
2023-05-25T19:07:29.296Z,12.98
2023-05-25T19:10:30.301Z,10.63
2023-05-25T19:13:27.531Z,12.32
2023-05-25T19:15:54.871Z,20.50
2023-05-25T19:18:21.965Z,9.23
2023-05-25T19:20:49.259Z,10.45
2023-05-25T19:23:16.497Z,11.70
2023-05-25T19:26:03.253Z,16.42
2023-05-25T19:29:04.271Z,10.70
2023-05-25T19:32:04.001Z,15.40
2023-05-25T19:34:31.880Z,20.75
2023-05-25T19:37:19.291Z,14.73
2023-05-25T19:40:20.329Z,19.45
2023-05-25T19:43:21.393Z,16.85
2023-05-25T19:46:22.301Z,14.88
2023-05-25T19:49:03.014Z,17.70
2023-05-25T19:51:50.370Z,14.13
2023-05-25T19:54:31.046Z,15.15
2023-05-25T19:56:58.024Z,17.50
2023-05-25T19:59:28.994Z,18.33
2023-05-25T20:01:56.929Z,20.27
2023-05-25T20:04:24.471Z,13.55
2023-05-25T20:06:52.091Z,20.95
2023-05-25T20:09:39.644Z,15.43
2023-05-25T20:12:40.316Z,16.05
2023-05-25T20:15:21.140Z,20.40
2023-05-25T20:17:48.211Z,19.65
2023-05-25T20:20:15.783Z,25.13
2023-05-25T20:22:42.944Z,15.15
2023-05-25T20:25:11.026Z,16.10
2023-05-25T20:27:58.340Z,14.07
2023-05-25T20:30:38.922Z,18.33
2023-05-25T20:33:07.440Z,16.77
2023-05-25T20:35:37.273Z,17.88
2023-05-25T20:38:24.304Z,18.40
2023-05-25T20:41:25.350Z,14.43
2023-05-25T20:44:07.016Z,17.77
2023-05-25T20:46:34.311Z,16.95
2023-05-25T20:49:22.412Z,20.33
2023-05-25T20:52:03.927Z,13.93
2023-05-25T20:54:31.040Z,19.90
2023-05-25T20:56:58.280Z,24.40
2023-05-25T20:59:45.350Z,15.00
2023-05-25T21:02:27.185Z,25.15
2023-05-25T21:04:57.298Z,15.75
2023-05-25T21:07:24.358Z,15.77
2023-05-25T21:09:51.326Z,21.50
2023-05-25T21:12:18.548Z,18.50
2023-05-25T21:14:58.421Z,27.90
2023-05-25T21:17:48.720Z,23.20
2023-05-25T21:20:16.054Z,20.83
2023-05-25T21:22:43.014Z,16.42
2023-05-25T21:25:10.576Z,15.77
2023-05-25T21:27:57.470Z,14.90
2023-05-25T21:30:37.826Z,18.20
2023-05-25T21:33:04.831Z,24.05
2023-05-25T21:35:32.144Z,20.85
2023-05-25T21:37:59.102Z,18.85
2023-05-25T21:40:46.351Z,17.48
2023-05-25T21:43:47.413Z,17.02
2023-05-25T21:46:37.419Z,17.27
2023-05-25T21:49:04.389Z,17.40
2023-05-25T21:51:32.312Z,22.17
2023-05-25T21:54:00.175Z,28.95
2023-05-25T21:56:27.779Z,17.80
2023-05-25T21:58:55.191Z,22.88
2023-05-25T22:01:24.162Z,18.70
2023-05-25T22:03:51.633Z,29.27
2023-05-25T22:06:18.793Z,19.17
2023-05-25T22:09:06.493Z,21.05
2023-05-25T22:11:46.886Z,26.15
2023-05-25T22:14:34.386Z,16.95
2023-05-25T22:17:35.410Z,18.88
2023-05-25T22:20:17.802Z,18.77
2023-05-25T22:23:05.353Z,20.08
2023-05-25T22:25:46.109Z,23.27
2023-05-25T22:28:14.293Z,18.23
2023-05-25T22:30:42.478Z,19.63
2023-05-25T22:33:09.599Z,19.92
2023-05-25T22:35:36.952Z,20.05
2023-05-25T22:38:03.889Z,20.55
2023-05-25T22:40:54.360Z,22.15
2023-05-25T22:43:34.862Z,22.90
2023-05-25T22:46:01.957Z,20.02
2023-05-25T22:48:50.358Z,21.70
2023-05-25T22:51:51.378Z,21.75
2023-05-25T22:54:31.910Z,21.50
2023-05-25T22:56:58.928Z,22.42
2023-05-25T22:59:46.429Z,24.30
2023-05-25T23:02:26.945Z,22.13
2023-05-25T23:04:54.072Z,28.15
2023-05-25T23:07:20.989Z,31.08
2023-05-25T23:09:47.905Z,22.23
2023-05-25T23:12:14.809Z,27.02
2023-05-25T23:14:44.580Z,28.27
2023-05-25T23:17:11.553Z,24.38
2023-05-25T23:19:39.550Z,26.90
2023-05-25T23:22:26.397Z,26.52
2023-05-25T23:25:07.411Z,27.15
2023-05-25T23:27:34.341Z,26.40
2023-05-25T23:30:03.074Z,27.35
2023-05-25T23:32:30.001Z,28.08
2023-05-25T23:34:57.402Z,34.45
2023-05-25T23:37:24.376Z,27.88
2023-05-25T23:39:51.331Z,34.47
2023-05-25T23:42:41.446Z,32.25
2023-05-25T23:45:22.097Z,31.35
2023-05-25T23:47:49.254Z,26.02
2023-05-25T23:50:16.324Z,28.15
2023-05-25T23:52:44.185Z,31.58
2023-05-25T23:55:11.142Z,28.00
2023-05-25T23:57:39.165Z,31.67
